createdAt,value
2019-05-01T00:02:11.299Z,9.70
2019-05-01T00:05:14.045Z,9.70
2019-05-01T00:08:02.534Z,9.60
2019-05-01T00:10:50.932Z,9.50
2019-05-01T00:13:38.731Z,9.50
2019-05-01T00:16:27.578Z,9.50
2019-05-01T00:19:15.894Z,9.60
2019-05-01T00:22:04.376Z,9.50
2019-05-01T00:24:52.000Z,9.50
2019-05-01T00:27:40.708Z,9.40
2019-05-01T00:30:30.374Z,9.30
2019-05-01T00:33:18.962Z,9.30
2019-05-01T00:36:07.479Z,9.20
2019-05-01T00:38:55.432Z,9.30
2019-05-01T00:41:43.037Z,9.30
2019-05-01T00:44:31.102Z,9.30
2019-05-01T00:47:19.543Z,9.20
2019-05-01T00:50:08.951Z,9.10
2019-05-01T00:52:56.508Z,9.00
2019-05-01T00:55:58.231Z,8.90
2019-05-01T00:59:07.957Z,8.90
2019-05-01T01:02:13.058Z,8.90
2019-05-01T01:05:01.383Z,8.90
2019-05-01T01:07:49.339Z,8.90
2019-05-01T01:10:37.727Z,8.90
2019-05-01T01:13:25.889Z,8.70
2019-05-01T01:16:14.227Z,8.70
2019-05-01T01:19:02.186Z,8.80
2019-05-01T01:21:50.358Z,8.90
2019-05-01T01:24:38.839Z,8.90
2019-05-01T01:27:27.230Z,8.80
2019-05-01T01:30:15.775Z,8.80
2019-05-01T01:33:03.543Z,8.80
2019-05-01T01:35:51.654Z,8.70
2019-05-01T01:38:39.182Z,8.80
2019-05-01T01:41:28.113Z,8.80
2019-05-01T01:44:47.250Z,8.70
2019-05-01T01:47:34.710Z,8.60
2019-05-01T01:50:22.919Z,8.70
2019-05-01T01:53:13.547Z,8.60
2019-05-01T01:56:01.887Z,8.60
2019-05-01T01:58:50.809Z,8.60
2019-05-01T02:01:56.466Z,8.60
2019-05-01T02:05:06.402Z,8.50
2019-05-01T02:07:54.657Z,8.50
2019-05-01T02:10:43.534Z,8.50
2019-05-01T02:13:32.164Z,8.50
2019-05-01T02:16:20.619Z,8.50
2019-05-01T02:19:08.645Z,8.50
2019-05-01T02:21:56.977Z,8.50
2019-05-01T02:24:45.140Z,8.50
2019-05-01T02:27:43.239Z,8.60
2019-05-01T02:30:31.272Z,8.60
2019-05-01T02:33:19.169Z,8.60
2019-05-01T02:36:07.711Z,8.70
2019-05-01T02:38:57.088Z,8.70
2019-05-01T02:41:47.097Z,8.60
2019-05-01T02:44:41.879Z,8.50
2019-05-01T02:47:32.455Z,8.40
2019-05-01T02:50:23.393Z,8.40
2019-05-01T02:53:12.768Z,8.40
2019-05-01T02:56:19.350Z,8.40
2019-05-01T02:59:08.985Z,8.30
2019-05-01T03:01:58.168Z,8.30
2019-05-01T03:04:46.823Z,8.40
2019-05-01T03:07:38.109Z,8.30
2019-05-01T03:10:26.864Z,8.10
2019-05-01T03:13:15.378Z,8.20
2019-05-01T03:16:04.583Z,8.30
2019-05-01T03:18:55.620Z,8.30
2019-05-01T03:21:57.683Z,8.30
2019-05-01T03:24:46.276Z,8.40
2019-05-01T03:27:34.444Z,8.40
2019-05-01T03:30:22.152Z,8.50
2019-05-01T03:33:10.496Z,8.50
2019-05-01T03:35:58.505Z,8.60
2019-05-01T03:38:47.016Z,8.70
2019-05-01T03:41:35.528Z,8.60
2019-05-01T03:44:24.532Z,8.60
2019-05-01T03:47:12.747Z,8.50
2019-05-01T03:50:00.920Z,8.50
2019-05-01T03:52:49.498Z,8.50
2019-05-01T03:55:37.987Z,8.40
2019-05-01T03:58:26.362Z,8.50
2019-05-01T04:01:33.476Z,8.50
2019-05-01T04:04:25.026Z,8.40
2019-05-01T04:07:12.999Z,8.60
2019-05-01T04:10:01.363Z,8.60
2019-05-01T04:12:49.890Z,8.60
2019-05-01T04:15:38.407Z,8.60
2019-05-01T04:18:27.743Z,8.70
2019-05-01T04:21:15.948Z,8.80
2019-05-01T04:24:04.859Z,8.90
2019-05-01T04:26:53.684Z,8.90
2019-05-01T04:29:51.680Z,8.90
2019-05-01T04:32:52.095Z,8.70
2019-05-01T04:35:49.507Z,8.70
2019-05-01T04:38:37.247Z,8.70
2019-05-01T04:41:26.208Z,8.70
2019-05-01T04:44:14.525Z,8.80
2019-05-01T04:47:03.375Z,8.80
2019-05-01T04:49:51.215Z,8.70
2019-05-01T04:52:39.639Z,8.80
2019-05-01T04:55:28.151Z,8.70
2019-05-01T04:58:16.499Z,8.80
2019-05-01T05:01:04.784Z,8.80
2019-05-01T05:03:54.011Z,8.70
2019-05-01T05:06:41.998Z,8.80
2019-05-01T05:09:43.375Z,8.60
2019-05-01T05:12:42.003Z,8.60
2019-05-01T05:15:37.943Z,8.60
2019-05-01T05:18:26.471Z,8.70
2019-05-01T05:21:15.153Z,8.70
2019-05-01T05:24:03.782Z,8.80
2019-05-01T05:26:51.722Z,8.80
2019-05-01T05:29:40.090Z,8.80
2019-05-01T05:32:29.321Z,8.80
2019-05-01T05:35:20.036Z,8.90
2019-05-01T05:38:31.161Z,8.90
2019-05-01T05:41:19.897Z,9.00
2019-05-01T05:44:07.787Z,9.00
2019-05-01T05:46:55.501Z,9.20
2019-05-01T05:49:43.142Z,9.20
2019-05-01T05:52:43.956Z,9.20
2019-05-01T05:55:38.394Z,9.20
2019-05-01T05:58:42.542Z,9.10
2019-05-01T06:01:52.217Z,9.10
2019-05-01T06:05:08.732Z,9.10
2019-05-01T06:08:20.255Z,9.20
2019-05-01T06:11:43.230Z,9.10
2019-05-01T06:15:02.285Z,9.20
2019-05-01T06:18:04.225Z,9.30
2019-05-01T06:21:17.652Z,9.30
2019-05-01T06:24:10.787Z,9.20
2019-05-01T06:26:58.711Z,9.40
2019-05-01T06:29:47.519Z,9.50
2019-05-01T06:32:35.202Z,9.60
2019-05-01T06:35:23.676Z,9.40
2019-05-01T06:38:16.306Z,9.30
2019-05-01T06:41:04.524Z,9.30
2019-05-01T06:44:03.884Z,9.40
2019-05-01T06:46:58.220Z,9.40
2019-05-01T06:50:07.633Z,9.50
2019-05-01T06:52:59.759Z,9.70
2019-05-01T06:55:45.831Z,9.60
2019-05-01T06:58:34.335Z,9.80
2019-05-01T07:01:24.071Z,9.90
2019-05-01T07:04:14.186Z,9.70
2019-05-01T07:07:06.883Z,9.70
2019-05-01T07:09:56.147Z,9.60
2019-05-01T07:12:44.090Z,9.50
2019-05-01T07:15:32.063Z,9.30
2019-05-01T07:18:24.096Z,9.00
2019-05-01T07:21:10.555Z,9.30
2019-05-01T07:23:58.851Z,9.30
2019-05-01T07:26:48.123Z,9.50
2019-05-01T07:29:39.992Z,9.40
2019-05-01T07:32:28.215Z,9.60
2019-05-01T07:35:16.758Z,9.70
2019-05-01T07:38:04.767Z,9.60
2019-05-01T07:40:53.319Z,9.70
2019-05-01T07:43:59.586Z,9.60
2019-05-01T07:47:14.097Z,9.50
2019-05-01T07:50:05.200Z,9.70
2019-05-01T07:52:54.033Z,9.80
2019-05-01T07:55:42.587Z,9.80
2019-05-01T07:58:31.831Z,9.70
2019-05-01T08:01:33.611Z,9.90
2019-05-01T08:04:35.290Z,10.00
2019-05-01T08:07:10.877Z,10.10
2019-05-01T08:09:58.763Z,10.00
2019-05-01T08:12:47.067Z,10.30
2019-05-01T08:15:35.767Z,10.30
2019-05-01T08:18:36.239Z,10.40
2019-05-01T08:21:48.016Z,10.30
2019-05-01T08:24:35.499Z,10.50
2019-05-01T08:27:56.263Z,10.30
2019-05-01T08:31:02.740Z,10.30
2019-05-01T08:34:01.422Z,10.20
2019-05-01T08:36:48.940Z,10.30
2019-05-01T08:39:39.746Z,10.60
2019-05-01T08:42:27.266Z,10.80
2019-05-01T08:45:44.131Z,10.80
2019-05-01T08:48:39.351Z,10.70
2019-05-01T08:51:30.063Z,10.60
2019-05-01T08:54:17.282Z,10.50
2019-05-01T08:57:07.897Z,10.80
2019-05-01T08:59:59.886Z,10.70
2019-05-01T09:02:45.039Z,10.70
2019-05-01T09:05:34.128Z,10.60
2019-05-01T09:08:22.511Z,10.90
2019-05-01T09:11:10.519Z,10.60
2019-05-01T09:14:00.157Z,10.70
2019-05-01T09:16:48.884Z,10.90
2019-05-01T09:19:36.516Z,10.90
2019-05-01T09:22:24.627Z,11.00
2019-05-01T09:25:14.991Z,11.20
2019-05-01T09:28:10.763Z,11.20
2019-05-01T09:31:02.200Z,11.10
2019-05-01T09:33:50.226Z,11.00
2019-05-01T09:36:38.327Z,11.00
2019-05-01T09:39:27.497Z,11.10
2019-05-01T09:42:22.715Z,11.10
2019-05-01T09:45:06.209Z,11.30
2019-05-01T09:47:54.779Z,11.10
2019-05-01T09:50:47.687Z,10.80
2019-05-01T09:53:42.420Z,11.00
2019-05-01T09:56:30.987Z,11.00
2019-05-01T09:59:19.135Z,11.30
2019-05-01T10:02:09.142Z,11.50
2019-05-01T10:04:57.420Z,11.50
2019-05-01T10:07:45.872Z,11.50
2019-05-01T10:10:33.780Z,11.80
2019-05-01T10:13:24.006Z,11.60
2019-05-01T10:16:11.355Z,11.60
2019-05-01T10:18:59.811Z,11.80
2019-05-01T10:21:48.012Z,11.90
2019-05-01T10:24:37.726Z,12.00
2019-05-01T10:27:31.032Z,11.80
2019-05-01T10:30:31.669Z,12.00
2019-05-01T10:33:21.263Z,12.10
2019-05-01T10:36:43.596Z,12.40
2019-05-01T10:39:31.851Z,12.50
2019-05-01T10:42:20.445Z,12.60
2019-05-01T10:45:08.887Z,12.90
2019-05-01T10:47:57.075Z,13.10
2019-05-01T10:50:44.830Z,12.80
2019-05-01T10:53:33.121Z,12.80
2019-05-01T10:56:21.163Z,13.00
2019-05-01T10:59:09.741Z,13.20
2019-05-01T11:01:59.167Z,13.20
2019-05-01T11:04:47.700Z,13.00
2019-05-01T11:07:36.408Z,13.20
2019-05-01T11:10:24.487Z,13.00
2019-05-01T11:13:12.979Z,13.10
2019-05-01T11:16:01.328Z,13.10
2019-05-01T11:18:49.495Z,13.30
2019-05-01T11:21:37.483Z,13.40
2019-05-01T11:24:26.099Z,13.80
2019-05-01T11:27:13.770Z,14.00
2019-05-01T11:30:02.247Z,13.90
2019-05-01T11:32:56.271Z,14.50
2019-05-01T11:36:09.331Z,14.70
2019-05-01T11:38:56.607Z,15.10
2019-05-01T11:41:57.902Z,14.80
2019-05-01T11:44:45.951Z,15.00
2019-05-01T11:47:34.500Z,15.30
2019-05-01T11:50:22.220Z,15.20
2019-05-01T11:53:10.895Z,15.20
2019-05-01T11:55:59.371Z,15.60
2019-05-01T11:58:48.499Z,16.30
2019-05-01T12:01:37.092Z,16.60
2019-05-01T12:04:25.849Z,17.00
2019-05-01T12:07:14.228Z,17.90
2019-05-01T12:10:02.352Z,17.10
2019-05-01T12:12:49.931Z,18.40
2019-05-01T12:15:38.447Z,20.20
2019-05-01T12:18:26.492Z,21.80
2019-05-01T12:21:14.651Z,22.30
2019-05-01T12:24:03.275Z,22.20
2019-05-01T12:26:51.917Z,22.70
2019-05-01T12:29:39.947Z,23.40
2019-05-01T12:32:27.723Z,22.60
2019-05-01T12:35:15.876Z,21.10
2019-05-01T12:38:04.366Z,21.20
2019-05-01T12:41:10.252Z,20.80
2019-05-01T12:43:58.528Z,22.00
2019-05-01T12:46:56.742Z,22.20
2019-05-01T12:49:46.068Z,21.30
2019-05-01T12:52:58.135Z,22.40
2019-05-01T12:56:05.608Z,22.30
2019-05-01T12:58:55.882Z,22.30
2019-05-01T13:01:43.027Z,21.60
2019-05-01T13:04:31.087Z,21.90
2019-05-01T13:07:19.542Z,22.40
2019-05-01T13:10:08.350Z,23.00
2019-05-01T13:12:55.833Z,24.10
2019-05-01T13:15:44.214Z,23.80
2019-05-01T13:18:32.609Z,23.50
2019-05-01T13:21:21.205Z,23.60
2019-05-01T13:24:10.043Z,23.60
2019-05-01T13:27:07.811Z,23.70
2019-05-01T13:30:01.433Z,23.30
2019-05-01T13:32:50.819Z,24.40
2019-05-01T13:35:39.116Z,23.60
2019-05-01T13:38:27.155Z,24.10
2019-05-01T13:41:14.699Z,24.80
2019-05-01T13:44:03.391Z,24.60
2019-05-01T13:46:51.468Z,24.30
2019-05-01T13:49:39.818Z,23.70
2019-05-01T13:52:28.818Z,24.30
2019-05-01T13:55:17.446Z,24.70
2019-05-01T13:58:05.603Z,24.30
2019-05-01T14:00:54.260Z,24.10
2019-05-01T14:03:42.329Z,24.90
2019-05-01T14:06:30.773Z,24.70
2019-05-01T14:09:26.739Z,24.70
2019-05-01T14:12:14.658Z,25.50
2019-05-01T14:15:02.696Z,24.90
2019-05-01T14:17:51.292Z,23.90
2019-05-01T14:21:02.304Z,24.00
2019-05-01T14:24:28.223Z,23.40
2019-05-01T14:27:16.719Z,23.80
2019-05-01T14:30:06.313Z,24.20
2019-05-01T14:32:54.583Z,24.20
2019-05-01T14:35:42.771Z,24.20
2019-05-01T14:38:30.662Z,24.70
2019-05-01T14:41:18.847Z,23.40
2019-05-01T14:44:07.275Z,23.80
2019-05-01T14:46:54.855Z,23.60
2019-05-01T14:49:43.006Z,23.90
2019-05-01T14:52:30.751Z,24.10
2019-05-01T14:55:19.128Z,24.30
2019-05-01T14:58:06.667Z,23.70
2019-05-01T15:00:55.452Z,23.70
2019-05-01T15:03:43.555Z,23.70
2019-05-01T15:06:31.884Z,24.00
2019-05-01T15:09:20.090Z,23.30
2019-05-01T15:12:09.308Z,23.20
2019-05-01T15:15:17.487Z,23.10
2019-05-01T15:18:25.819Z,23.40
2019-05-01T15:21:14.205Z,23.20
2019-05-01T15:24:02.522Z,22.60
2019-05-01T15:26:51.299Z,23.40
2019-05-01T15:29:38.862Z,23.00
2019-05-01T15:32:27.068Z,22.70
2019-05-01T15:35:15.386Z,22.90
2019-05-01T15:38:03.551Z,22.50
2019-05-01T15:40:59.931Z,22.60
2019-05-01T15:44:06.946Z,22.20
2019-05-01T15:46:55.234Z,21.90
2019-05-01T15:49:43.927Z,21.30
2019-05-01T15:52:31.435Z,21.10
2019-05-01T15:55:19.907Z,20.10
2019-05-01T15:58:08.167Z,19.70
2019-05-01T16:00:56.795Z,19.60
2019-05-01T16:03:45.182Z,19.40
2019-05-01T16:06:33.628Z,18.90
2019-05-01T16:09:21.907Z,18.80
2019-05-01T16:12:44.505Z,18.60
2019-05-01T16:15:34.050Z,18.50
2019-05-01T16:18:22.139Z,18.30
2019-05-01T16:21:10.832Z,18.20
2019-05-01T16:23:58.827Z,18.00
2019-05-01T16:26:47.431Z,17.60
2019-05-01T16:29:36.064Z,17.70
2019-05-01T16:32:24.320Z,17.40
2019-05-01T16:35:12.724Z,17.40
2019-05-01T16:38:02.516Z,17.30
2019-05-01T16:41:07.694Z,17.30
2019-05-01T16:43:55.328Z,17.20
2019-05-01T16:46:43.306Z,17.20
2019-05-01T16:49:30.932Z,16.90
2019-05-01T16:52:21.710Z,16.80
2019-05-01T16:55:10.223Z,16.90
2019-05-01T16:57:58.379Z,16.80
2019-05-01T17:00:57.524Z,16.70
2019-05-01T17:04:05.633Z,16.50
2019-05-01T17:07:02.567Z,16.60
2019-05-01T17:10:11.500Z,16.50
2019-05-01T17:12:59.434Z,16.30
2019-05-01T17:15:50.655Z,16.20
2019-05-01T17:18:38.881Z,16.20
2019-05-01T17:21:26.891Z,16.10
2019-05-01T17:24:15.262Z,16.00
2019-05-01T17:27:03.846Z,15.80
2019-05-01T17:29:52.310Z,15.80
2019-05-01T17:32:44.355Z,15.70
2019-05-01T17:35:29.751Z,15.60
2019-05-01T17:38:18.026Z,15.60
2019-05-01T17:41:06.370Z,15.60
2019-05-01T17:43:56.584Z,15.40
2019-05-01T17:46:47.091Z,15.30
2019-05-01T17:49:33.871Z,15.10
2019-05-01T17:52:22.373Z,15.00
2019-05-01T17:55:09.982Z,14.90
2019-05-01T17:57:58.449Z,14.70
2019-05-01T18:01:17.860Z,14.60
2019-05-01T18:04:16.770Z,14.60
2019-05-01T18:07:04.691Z,14.50
2019-05-01T18:09:55.756Z,14.50
2019-05-01T18:12:43.098Z,14.50
2019-05-01T18:15:31.331Z,14.40
2019-05-01T18:18:18.867Z,14.40
2019-05-01T18:21:08.925Z,14.30
2019-05-01T18:24:31.041Z,14.30
2019-05-01T18:27:36.618Z,14.20
2019-05-01T18:30:29.323Z,14.10
2019-05-01T18:33:17.584Z,13.90
2019-05-01T18:36:06.502Z,13.80
2019-05-01T18:39:01.905Z,13.80
2019-05-01T18:41:59.263Z,13.70
2019-05-01T18:44:48.904Z,13.60
2019-05-01T18:47:37.850Z,13.50
2019-05-01T18:50:26.293Z,13.40
2019-05-01T18:53:14.423Z,13.30
2019-05-01T18:56:05.591Z,13.20
2019-05-01T18:58:53.444Z,13.20
2019-05-01T19:01:43.806Z,13.10
2019-05-01T19:04:31.683Z,13.00
2019-05-01T19:07:19.677Z,12.90
2019-05-01T19:10:07.794Z,12.80
2019-05-01T19:12:56.179Z,12.80
2019-05-01T19:15:44.028Z,12.70
2019-05-01T19:18:32.609Z,12.60
2019-05-01T19:21:23.878Z,12.50
2019-05-01T19:24:12.454Z,12.40
2019-05-01T19:27:00.438Z,12.40
2019-05-01T19:29:48.960Z,12.30
2019-05-01T19:32:38.077Z,12.20
2019-05-01T19:35:29.666Z,12.20
2019-05-01T19:38:15.906Z,12.10
2019-05-01T19:41:08.427Z,12.10
2019-05-01T19:43:54.009Z,11.90
2019-05-01T19:46:42.192Z,11.80
2019-05-01T19:49:30.846Z,11.70
2019-05-01T19:52:19.076Z,11.60
2019-05-01T19:55:07.823Z,11.60
2019-05-01T19:57:55.816Z,11.50
2019-05-01T20:00:53.282Z,11.40
2019-05-01T20:03:41.336Z,11.40
2019-05-01T20:06:29.324Z,11.40
2019-05-01T20:09:17.615Z,11.30
2019-05-01T20:12:06.557Z,11.20
2019-05-01T20:14:54.676Z,11.20
2019-05-01T20:17:42.382Z,11.10
2019-05-01T20:20:30.592Z,11.00
2019-05-01T20:23:18.803Z,11.00
2019-05-01T20:26:07.063Z,11.00
2019-05-01T20:28:57.470Z,11.20
2019-05-01T20:31:45.749Z,11.30
2019-05-01T20:34:35.199Z,11.20
2019-05-01T20:37:22.682Z,11.10
2019-05-01T20:40:11.655Z,11.00
2019-05-01T20:43:00.962Z,11.00
2019-05-01T20:45:51.301Z,10.90
2019-05-01T20:48:39.268Z,10.80
2019-05-01T20:51:26.833Z,10.70
2019-05-01T20:54:15.027Z,10.60
2019-05-01T20:57:07.988Z,10.60
2019-05-01T20:59:56.454Z,10.50
2019-05-01T21:02:44.595Z,10.50
2019-05-01T21:05:38.886Z,10.40
2019-05-01T21:08:51.877Z,10.40
2019-05-01T21:11:47.154Z,10.30
2019-05-01T21:14:32.096Z,10.30
2019-05-01T21:17:20.290Z,10.30
2019-05-01T21:20:07.951Z,10.20
2019-05-01T21:22:55.690Z,10.10
2019-05-01T21:25:43.991Z,10.00
2019-05-01T21:28:34.075Z,10.00
2019-05-01T21:31:24.057Z,9.90
2019-05-01T21:34:14.365Z,10.00
2019-05-01T21:37:01.651Z,9.90
2019-05-01T21:39:49.642Z,10.10
2019-05-01T21:42:38.348Z,10.20
2019-05-01T21:45:27.172Z,10.20
2019-05-01T21:48:15.127Z,10.20
2019-05-01T21:51:07.110Z,10.20
2019-05-01T21:53:53.182Z,10.30
2019-05-01T21:56:41.452Z,10.20
2019-05-01T21:59:31.447Z,10.20
2019-05-01T22:02:19.399Z,10.30
2019-05-01T22:05:08.325Z,10.30
2019-05-01T22:07:58.653Z,10.20
2019-05-01T22:10:52.259Z,10.20
2019-05-01T22:13:35.902Z,10.20
2019-05-01T22:16:26.480Z,10.10
2019-05-01T22:19:18.846Z,10.10
2019-05-01T22:22:26.103Z,10.10
2019-05-01T22:25:18.754Z,10.10
2019-05-01T22:28:13.910Z,10.10
2019-05-01T22:31:16.714Z,10.00
2019-05-01T22:34:17.327Z,10.00
2019-05-01T22:37:05.860Z,9.90
2019-05-01T22:40:00.440Z,10.00
2019-05-01T22:42:48.210Z,9.90
2019-05-01T22:45:37.326Z,9.80
2019-05-01T22:48:25.692Z,9.90
2019-05-01T22:51:20.899Z,9.80
2019-05-01T22:54:08.754Z,9.70
2019-05-01T22:56:57.161Z,9.60
2019-05-01T22:59:45.587Z,9.60
2019-05-01T23:02:39.194Z,9.60
2019-05-01T23:05:29.444Z,9.60
2019-05-01T23:08:17.770Z,9.60
2019-05-01T23:11:18.804Z,9.40
2019-05-01T23:13:55.767Z,9.40
2019-05-01T23:17:07.770Z,9.20
2019-05-01T23:19:58.977Z,9.00
2019-05-01T23:22:45.141Z,8.80
2019-05-01T23:25:36.530Z,8.80
2019-05-01T23:28:22.921Z,8.80
2019-05-01T23:31:11.533Z,8.70
2019-05-01T23:34:00.122Z,8.60
2019-05-01T23:36:48.623Z,8.60
2019-05-01T23:39:40.420Z,8.70
2019-05-01T23:42:26.259Z,8.70
2019-05-01T23:45:14.736Z,8.70
2019-05-01T23:48:03.124Z,8.60
2019-05-01T23:50:51.326Z,8.60
2019-05-01T23:53:39.039Z,8.60
2019-05-01T23:56:31.095Z,8.50
2019-05-01T23:59:16.438Z,8.40
